sensor_id;sensor_type;location;lat;lon;timestamp;temperature;humidity
11965;DHT22;6042;41.326;19.826;2023-06-04T00:01:37;19.80;99.90
11965;DHT22;6042;41.326;19.826;2023-06-04T00:04:06;19.70;99.90
11965;DHT22;6042;41.326;19.826;2023-06-04T00:06:34;19.80;99.90
11965;DHT22;6042;41.326;19.826;2023-06-04T00:09:03;19.80;99.90
11965;DHT22;6042;41.326;19.826;2023-06-04T00:11:31;19.80;99.90
11965;DHT22;6042;41.326;19.826;2023-06-04T00:14:03;19.90;99.90
11965;DHT22;6042;41.326;19.826;2023-06-04T00:16:32;19.90;99.90
11965;DHT22;6042;41.326;19.826;2023-06-04T00:19:03;19.90;99.90
11965;DHT22;6042;41.326;19.826;2023-06-04T00:21:31;19.90;99.90
11965;DHT22;6042;41.326;19.826;2023-06-04T00:24:00;19.90;99.90
11965;DHT22;6042;41.326;19.826;2023-06-04T00:26:29;19.80;99.90
11965;DHT22;6042;41.326;19.826;2023-06-04T00:28:58;19.90;99.90
11965;DHT22;6042;41.326;19.826;2023-06-04T00:31:28;20.00;99.90
11965;DHT22;6042;41.326;19.826;2023-06-04T00:33:57;20.10;99.90
11965;DHT22;6042;41.326;19.826;2023-06-04T00:36:25;20.10;99.90
11965;DHT22;6042;41.326;19.826;2023-06-04T00:38:54;20.10;99.90
11965;DHT22;6042;41.326;19.826;2023-06-04T00:41:22;20.00;99.90
11965;DHT22;6042;41.326;19.826;2023-06-04T00:43:52;20.00;99.90
11965;DHT22;6042;41.326;19.826;2023-06-04T00:46:24;20.10;99.90
11965;DHT22;6042;41.326;19.826;2023-06-04T00:48:55;20.00;99.90
11965;DHT22;6042;41.326;19.826;2023-06-04T00:51:25;19.90;99.90
11965;DHT22;6042;41.326;19.826;2023-06-04T00:53:53;19.80;99.90
11965;DHT22;6042;41.326;19.826;2023-06-04T00:56:22;19.70;99.90
11965;DHT22;6042;41.326;19.826;2023-06-04T00:58:53;19.80;99.90
11965;DHT22;6042;41.326;19.826;2023-06-04T01:01:31;19.60;99.90
11965;DHT22;6042;41.326;19.826;2023-06-04T01:04:02;19.50;99.90
11965;DHT22;6042;41.326;19.826;2023-06-04T01:06:38;19.60;99.90
11965;DHT22;6042;41.326;19.826;2023-06-04T01:09:07;19.70;99.90
11965;DHT22;6042;41.326;19.826;2023-06-04T01:11:38;19.70;99.90
11965;DHT22;6042;41.326;19.826;2023-06-04T01:14:09;19.60;99.90
11965;DHT22;6042;41.326;19.826;2023-06-04T01:16:41;19.60;99.90
11965;DHT22;6042;41.326;19.826;2023-06-04T01:19:45;19.60;99.90
11965;DHT22;6042;41.326;19.826;2023-06-04T01:22:33;19.60;99.90
11965;DHT22;6042;41.326;19.826;2023-06-04T01:25:05;19.60;99.90
11965;DHT22;6042;41.326;19.826;2023-06-04T01:27:34;19.60;99.90
11965;DHT22;6042;41.326;19.826;2023-06-04T01:30:04;19.50;99.90
11965;DHT22;6042;41.326;19.826;2023-06-04T01:32:33;19.40;99.90
11965;DHT22;6042;41.326;19.826;2023-06-04T01:35:08;19.50;99.90
11965;DHT22;6042;41.326;19.826;2023-06-04T01:37:36;19.50;99.90
11965;DHT22;6042;41.326;19.826;2023-06-04T01:40:06;19.60;99.90
11965;DHT22;6042;41.326;19.826;2023-06-04T01:42:36;19.60;99.90
11965;DHT22;6042;41.326;19.826;2023-06-04T01:45:05;19.60;99.90
11965;DHT22;6042;41.326;19.826;2023-06-04T01:47:34;19.60;99.90
11965;DHT22;6042;41.326;19.826;2023-06-04T02:03:22;19.60;99.90
11965;DHT22;6042;41.326;19.826;2023-06-04T02:05:52;19.60;99.90
11965;DHT22;6042;41.326;19.826;2023-06-04T02:08:22;19.60;99.90
11965;DHT22;6042;41.326;19.826;2023-06-04T02:10:53;19.70;99.90
11965;DHT22;6042;41.326;19.826;2023-06-04T02:13:21;19.60;99.90
11965;DHT22;6042;41.326;19.826;2023-06-04T02:15:50;19.40;99.90
11965;DHT22;6042;41.326;19.826;2023-06-04T02:18:19;19.40;99.90
11965;DHT22;6042;41.326;19.826;2023-06-04T02:20:52;19.30;99.90
11965;DHT22;6042;41.326;19.826;2023-06-04T02:23:20;19.30;99.90
11965;DHT22;6042;41.326;19.826;2023-06-04T02:25:49;19.20;99.90
11965;DHT22;6042;41.326;19.826;2023-06-04T02:28:17;19.20;99.90
11965;DHT22;6042;41.326;19.826;2023-06-04T02:30:46;19.10;99.90
11965;DHT22;6042;41.326;19.826;2023-06-04T02:33:15;19.10;99.90
11965;DHT22;6042;41.326;19.826;2023-06-04T02:35:46;19.10;99.90
11965;DHT22;6042;41.326;19.826;2023-06-04T02:38:16;18.90;99.90
11965;DHT22;6042;41.326;19.826;2023-06-04T02:40:45;18.90;99.90
11965;DHT22;6042;41.326;19.826;2023-06-04T02:43:13;18.80;99.90
11965;DHT22;6042;41.326;19.826;2023-06-04T02:45:42;18.70;99.90
11965;DHT22;6042;41.326;19.826;2023-06-04T02:48:11;18.70;99.90
11965;DHT22;6042;41.326;19.826;2023-06-04T02:50:39;18.80;99.90
11965;DHT22;6042;41.326;19.826;2023-06-04T02:53:09;18.80;99.90
11965;DHT22;6042;41.326;19.826;2023-06-04T02:55:39;18.80;99.90
11965;DHT22;6042;41.326;19.826;2023-06-04T02:58:09;18.80;99.90
11965;DHT22;6042;41.326;19.826;2023-06-04T03:00:38;18.80;99.90
11965;DHT22;6042;41.326;19.826;2023-06-04T03:03:08;18.80;99.90
11965;DHT22;6042;41.326;19.826;2023-06-04T03:05:36;18.80;99.90
11965;DHT22;6042;41.326;19.826;2023-06-04T03:08:06;18.80;99.90
11965;DHT22;6042;41.326;19.826;2023-06-04T03:10:35;18.90;99.90
11965;DHT22;6042;41.326;19.826;2023-06-04T03:13:05;18.90;99.90
11965;DHT22;6042;41.326;19.826;2023-06-04T03:15:33;18.90;99.90
11965;DHT22;6042;41.326;19.826;2023-06-04T03:18:06;18.80;99.90
11965;DHT22;6042;41.326;19.826;2023-06-04T03:20:35;18.80;99.90
11965;DHT22;6042;41.326;19.826;2023-06-04T03:23:05;19.00;99.90
11965;DHT22;6042;41.326;19.826;2023-06-04T03:25:34;19.00;99.90
11965;DHT22;6042;41.326;19.826;2023-06-04T03:28:03;19.10;99.90
11965;DHT22;6042;41.326;19.826;2023-06-04T03:30:34;19.00;99.90
11965;DHT22;6042;41.326;19.826;2023-06-04T03:33:05;19.00;99.90
11965;DHT22;6042;41.326;19.826;2023-06-04T03:35:34;19.10;99.90
11965;DHT22;6042;41.326;19.826;2023-06-04T03:38:03;19.20;99.90
11965;DHT22;6042;41.326;19.826;2023-06-04T03:40:32;19.10;99.90
11965;DHT22;6042;41.326;19.826;2023-06-04T03:43:03;19.10;99.90
11965;DHT22;6042;41.326;19.826;2023-06-04T03:45:34;19.10;99.90
11965;DHT22;6042;41.326;19.826;2023-06-04T03:48:02;19.20;99.90
11965;DHT22;6042;41.326;19.826;2023-06-04T03:50:34;19.20;99.90
11965;DHT22;6042;41.326;19.826;2023-06-04T03:53:03;19.10;99.90
11965;DHT22;6042;41.326;19.826;2023-06-04T03:55:36;19.00;99.90
11965;DHT22;6042;41.326;19.826;2023-06-04T03:58:07;18.80;99.90
11965;DHT22;6042;41.326;19.826;2023-06-04T04:00:44;18.80;99.90
11965;DHT22;6042;41.326;19.826;2023-06-04T04:03:13;18.80;99.90
11965;DHT22;6042;41.326;19.826;2023-06-04T04:05:43;18.90;99.90
11965;DHT22;6042;41.326;19.826;2023-06-04T04:08:12;19.10;99.90
11965;DHT22;6042;41.326;19.826;2023-06-04T04:10:44;19.10;99.90
11965;DHT22;6042;41.326;19.826;2023-06-04T04:13:13;19.10;99.90
11965;DHT22;6042;41.326;19.826;2023-06-04T04:15:41;19.10;99.90
11965;DHT22;6042;41.326;19.826;2023-06-04T04:18:13;19.10;99.90
11965;DHT22;6042;41.326;19.826;2023-06-04T04:20:45;19.10;99.90
11965;DHT22;6042;41.326;19.826;2023-06-04T04:23:14;19.20;99.90
11965;DHT22;6042;41.326;19.826;2023-06-04T04:25:46;19.40;99.90
11965;DHT22;6042;41.326;19.826;2023-06-04T04:28:16;19.50;99.90
11965;DHT22;6042;41.326;19.826;2023-06-04T04:30:47;19.50;99.90
11965;DHT22;6042;41.326;19.826;2023-06-04T04:33:17;19.60;99.90
11965;DHT22;6042;41.326;19.826;2023-06-04T04:35:47;19.70;99.90
11965;DHT22;6042;41.326;19.826;2023-06-04T04:38:20;19.80;99.90
11965;DHT22;6042;41.326;19.826;2023-06-04T04:40:58;19.90;99.90
11965;DHT22;6042;41.326;19.826;2023-06-04T04:43:29;20.00;99.90
11965;DHT22;6042;41.326;19.826;2023-06-04T04:46:01;20.00;99.90
11965;DHT22;6042;41.326;19.826;2023-06-04T04:48:32;19.90;99.90
11965;DHT22;6042;41.326;19.826;2023-06-04T04:51:01;20.00;99.90
11965;DHT22;6042;41.326;19.826;2023-06-04T04:53:29;20.10;99.90
11965;DHT22;6042;41.326;19.826;2023-06-04T04:55:58;20.10;99.90
11965;DHT22;6042;41.326;19.826;2023-06-04T04:58:30;20.20;99.90
11965;DHT22;6042;41.326;19.826;2023-06-04T05:00:59;20.30;99.90
11965;DHT22;6042;41.326;19.826;2023-06-04T05:03:28;20.40;99.90
11965;DHT22;6042;41.326;19.826;2023-06-04T05:05:58;20.50;99.90
11965;DHT22;6042;41.326;19.826;2023-06-04T05:08:26;20.60;99.90
11965;DHT22;6042;41.326;19.826;2023-06-04T05:10:55;20.50;99.90
11965;DHT22;6042;41.326;19.826;2023-06-04T05:13:24;20.70;99.90
11965;DHT22;6042;41.326;19.826;2023-06-04T05:15:58;20.70;99.90
11965;DHT22;6042;41.326;19.826;2023-06-04T05:18:28;20.80;99.90
11965;DHT22;6042;41.326;19.826;2023-06-04T05:21:02;20.80;99.90
11965;DHT22;6042;41.326;19.826;2023-06-04T05:23:36;20.90;99.90
11965;DHT22;6042;41.326;19.826;2023-06-04T05:26:06;21.00;99.90
11965;DHT22;6042;41.326;19.826;2023-06-04T05:28:35;21.10;99.90
11965;DHT22;6042;41.326;19.826;2023-06-04T05:31:04;21.30;99.90
11965;DHT22;6042;41.326;19.826;2023-06-04T05:33:36;21.40;99.90
11965;DHT22;6042;41.326;19.826;2023-06-04T05:36:10;21.50;99.90
11965;DHT22;6042;41.326;19.826;2023-06-04T05:38:46;21.60;99.90
11965;DHT22;6042;41.326;19.826;2023-06-04T05:41:17;21.60;99.90
11965;DHT22;6042;41.326;19.826;2023-06-04T05:43:48;21.60;99.90
11965;DHT22;6042;41.326;19.826;2023-06-04T05:46:18;21.60;99.90
11965;DHT22;6042;41.326;19.826;2023-06-04T05:48:47;21.70;99.90
11965;DHT22;6042;41.326;19.826;2023-06-04T05:51:17;21.80;99.90
11965;DHT22;6042;41.326;19.826;2023-06-04T05:53:48;21.90;99.90
11965;DHT22;6042;41.326;19.826;2023-06-04T05:56:18;22.10;99.90
11965;DHT22;6042;41.326;19.826;2023-06-04T05:58:51;22.20;99.90
11965;DHT22;6042;41.326;19.826;2023-06-04T06:01:22;22.20;99.90
11965;DHT22;6042;41.326;19.826;2023-06-04T06:03:52;22.20;99.90
11965;DHT22;6042;41.326;19.826;2023-06-04T06:06:25;22.50;99.90
11965;DHT22;6042;41.326;19.826;2023-06-04T06:08:54;22.70;99.90
11965;DHT22;6042;41.326;19.826;2023-06-04T06:11:23;22.90;99.90
11965;DHT22;6042;41.326;19.826;2023-06-04T06:13:56;22.90;99.90
11965;DHT22;6042;41.326;19.826;2023-06-04T06:16:25;22.80;99.90
11965;DHT22;6042;41.326;19.826;2023-06-04T06:18:53;22.90;99.90
11965;DHT22;6042;41.326;19.826;2023-06-04T06:21:24;23.10;99.90
11965;DHT22;6042;41.326;19.826;2023-06-04T06:23:53;23.20;99.90
11965;DHT22;6042;41.326;19.826;2023-06-04T06:26:26;23.20;99.90
11965;DHT22;6042;41.326;19.826;2023-06-04T06:28:57;23.00;99.90
11965;DHT22;6042;41.326;19.826;2023-06-04T06:31:31;23.10;99.90
11965;DHT22;6042;41.326;19.826;2023-06-04T06:33:59;23.20;99.90
11965;DHT22;6042;41.326;19.826;2023-06-04T06:36:29;23.10;99.90
11965;DHT22;6042;41.326;19.826;2023-06-04T06:39:00;23.20;99.90
11965;DHT22;6042;41.326;19.826;2023-06-04T06:41:28;23.30;99.90
11965;DHT22;6042;41.326;19.826;2023-06-04T06:43:59;23.20;99.90
11965;DHT22;6042;41.326;19.826;2023-06-04T06:46:27;23.30;99.90
11965;DHT22;6042;41.326;19.826;2023-06-04T06:48:56;23.60;99.90
11965;DHT22;6042;41.326;19.826;2023-06-04T06:51:25;23.80;99.90
11965;DHT22;6042;41.326;19.826;2023-06-04T06:53:57;23.90;99.90
11965;DHT22;6042;41.326;19.826;2023-06-04T06:56:27;24.00;99.90
11965;DHT22;6042;41.326;19.826;2023-06-04T06:59:04;24.10;99.90
11965;DHT22;6042;41.326;19.826;2023-06-04T07:01:33;24.10;99.90
11965;DHT22;6042;41.326;19.826;2023-06-04T07:04:01;24.00;99.90
11965;DHT22;6042;41.326;19.826;2023-06-04T07:06:34;23.90;99.90
11965;DHT22;6042;41.326;19.826;2023-06-04T07:09:05;24.00;99.90
11965;DHT22;6042;41.326;19.826;2023-06-04T07:11:34;24.20;99.90
11965;DHT22;6042;41.326;19.826;2023-06-04T07:14:03;24.20;99.90
11965;DHT22;6042;41.326;19.826;2023-06-04T07:16:32;24.00;99.90
11965;DHT22;6042;41.326;19.826;2023-06-04T07:19:01;24.20;99.90
11965;DHT22;6042;41.326;19.826;2023-06-04T07:21:29;24.30;99.90
11965;DHT22;6042;41.326;19.826;2023-06-04T07:23:58;24.20;99.90
11965;DHT22;6042;41.326;19.826;2023-06-04T07:26:28;24.30;99.90
11965;DHT22;6042;41.326;19.826;2023-06-04T07:29:00;24.40;99.90
11965;DHT22;6042;41.326;19.826;2023-06-04T07:31:29;24.50;99.90
11965;DHT22;6042;41.326;19.826;2023-06-04T07:33:57;24.70;99.90
11965;DHT22;6042;41.326;19.826;2023-06-04T07:36:26;24.80;99.90
11965;DHT22;6042;41.326;19.826;2023-06-04T07:38:57;24.60;99.90
11965;DHT22;6042;41.326;19.826;2023-06-04T07:41:28;24.40;99.90
11965;DHT22;6042;41.326;19.826;2023-06-04T07:43:58;24.50;99.90
11965;DHT22;6042;41.326;19.826;2023-06-04T07:46:27;24.60;99.90
11965;DHT22;6042;41.326;19.826;2023-06-04T07:48:55;24.70;99.90
11965;DHT22;6042;41.326;19.826;2023-06-04T07:51:24;24.80;99.90
11965;DHT22;6042;41.326;19.826;2023-06-04T07:53:53;24.70;99.90
11965;DHT22;6042;41.326;19.826;2023-06-04T07:56:24;24.90;99.90
11965;DHT22;6042;41.326;19.826;2023-06-04T07:58:57;25.00;99.90
11965;DHT22;6042;41.326;19.826;2023-06-04T08:01:25;25.00;99.90
11965;DHT22;6042;41.326;19.826;2023-06-04T08:03:55;25.00;99.90
11965;DHT22;6042;41.326;19.826;2023-06-04T08:06:26;25.00;99.90
11965;DHT22;6042;41.326;19.826;2023-06-04T08:08:54;24.80;99.90
11965;DHT22;6042;41.326;19.826;2023-06-04T08:11:23;24.60;99.90
11965;DHT22;6042;41.326;19.826;2023-06-04T08:13:51;24.50;99.90
11965;DHT22;6042;41.326;19.826;2023-06-04T08:16:21;24.50;99.90
11965;DHT22;6042;41.326;19.826;2023-06-04T08:18:50;24.50;99.90
11965;DHT22;6042;41.326;19.826;2023-06-04T08:21:25;24.70;99.90
11965;DHT22;6042;41.326;19.826;2023-06-04T08:23:54;24.90;99.90
11965;DHT22;6042;41.326;19.826;2023-06-04T08:26:23;25.00;99.90
11965;DHT22;6042;41.326;19.826;2023-06-04T08:28:52;25.30;99.90
11965;DHT22;6042;41.326;19.826;2023-06-04T08:31:22;25.40;99.90
11965;DHT22;6042;41.326;19.826;2023-06-04T08:33:50;25.60;99.90
11965;DHT22;6042;41.326;19.826;2023-06-04T08:36:19;25.60;99.90
11965;DHT22;6042;41.326;19.826;2023-06-04T08:38:50;25.60;99.90
11965;DHT22;6042;41.326;19.826;2023-06-04T08:41:24;25.70;99.90
11965;DHT22;6042;41.326;19.826;2023-06-04T08:43:56;25.60;99.90
11965;DHT22;6042;41.326;19.826;2023-06-04T08:46:28;25.50;99.90
11965;DHT22;6042;41.326;19.826;2023-06-04T08:49:01;25.50;99.90
11965;DHT22;6042;41.326;19.826;2023-06-04T08:51:34;25.70;99.90
11965;DHT22;6042;41.326;19.826;2023-06-04T08:54:05;25.60;99.90
11965;DHT22;6042;41.326;19.826;2023-06-04T08:56:35;25.50;99.90
11965;DHT22;6042;41.326;19.826;2023-06-04T08:59:06;25.70;99.90
11965;DHT22;6042;41.326;19.826;2023-06-04T09:01:36;25.70;99.90
11965;DHT22;6042;41.326;19.826;2023-06-04T09:04:06;25.90;99.90
11965;DHT22;6042;41.326;19.826;2023-06-04T09:06:39;26.00;99.90
11965;DHT22;6042;41.326;19.826;2023-06-04T09:09:09;26.00;99.90
11965;DHT22;6042;41.326;19.826;2023-06-04T09:11:44;26.20;99.90
11965;DHT22;6042;41.326;19.826;2023-06-04T09:14:15;26.40;99.90
11965;DHT22;6042;41.326;19.826;2023-06-04T09:16:47;26.30;99.90
11965;DHT22;6042;41.326;19.826;2023-06-04T09:19:17;26.10;99.90
11965;DHT22;6042;41.326;19.826;2023-06-04T09:21:48;26.20;99.90
11965;DHT22;6042;41.326;19.826;2023-06-04T09:24:17;26.10;99.90
11965;DHT22;6042;41.326;19.826;2023-06-04T09:26:45;26.30;99.90
11965;DHT22;6042;41.326;19.826;2023-06-04T09:29:14;26.40;99.90
11965;DHT22;6042;41.326;19.826;2023-06-04T09:31:46;26.40;99.90
11965;DHT22;6042;41.326;19.826;2023-06-04T09:34:15;26.10;99.90
11965;DHT22;6042;41.326;19.826;2023-06-04T09:36:44;26.30;99.90
11965;DHT22;6042;41.326;19.826;2023-06-04T09:39:17;26.40;99.90
11965;DHT22;6042;41.326;19.826;2023-06-04T09:41:57;26.20;99.90
11965;DHT22;6042;41.326;19.826;2023-06-04T09:44:27;26.20;99.90
11965;DHT22;6042;41.326;19.826;2023-06-04T09:47:01;26.40;99.80
11965;DHT22;6042;41.326;19.826;2023-06-04T09:49:40;26.40;99.90
11965;DHT22;6042;41.326;19.826;2023-06-04T09:52:09;26.30;99.90
11965;DHT22;6042;41.326;19.826;2023-06-04T09:54:38;26.50;99.90
11965;DHT22;6042;41.326;19.826;2023-06-04T09:57:14;26.60;99.90
11965;DHT22;6042;41.326;19.826;2023-06-04T09:59:46;26.70;99.70
11965;DHT22;6042;41.326;19.826;2023-06-04T10:02:19;26.60;99.70
11965;DHT22;6042;41.326;19.826;2023-06-04T10:04:53;26.60;99.60
11965;DHT22;6042;41.326;19.826;2023-06-04T10:07:24;26.70;99.40
11965;DHT22;6042;41.326;19.826;2023-06-04T10:09:54;26.90;98.80
11965;DHT22;6042;41.326;19.826;2023-06-04T10:12:26;27.00;98.70
11965;DHT22;6042;41.326;19.826;2023-06-04T10:15:01;27.00;98.60
11965;DHT22;6042;41.326;19.826;2023-06-04T10:17:32;27.00;98.10
11965;DHT22;6042;41.326;19.826;2023-06-04T10:20:02;27.00;98.60
11965;DHT22;6042;41.326;19.826;2023-06-04T10:22:33;27.00;98.40
11965;DHT22;6042;41.326;19.826;2023-06-04T10:25:02;27.20;98.30
11965;DHT22;6042;41.326;19.826;2023-06-04T10:27:32;27.20;96.70
11965;DHT22;6042;41.326;19.826;2023-06-04T10:30:02;27.20;96.30
11965;DHT22;6042;41.326;19.826;2023-06-04T10:32:33;27.40;96.20
11965;DHT22;6042;41.326;19.826;2023-06-04T10:35:04;27.60;95.80
11965;DHT22;6042;41.326;19.826;2023-06-04T10:37:37;27.40;96.90
11965;DHT22;6042;41.326;19.826;2023-06-04T10:40:06;27.50;97.30
11965;DHT22;6042;41.326;19.826;2023-06-04T10:42:41;27.60;96.90
11965;DHT22;6042;41.326;19.826;2023-06-04T10:45:10;27.80;96.40
11965;DHT22;6042;41.326;19.826;2023-06-04T10:47:40;28.00;96.00
11965;DHT22;6042;41.326;19.826;2023-06-04T10:50:14;28.10;96.00
11965;DHT22;6042;41.326;19.826;2023-06-04T10:52:51;28.10;96.20
11965;DHT22;6042;41.326;19.826;2023-06-04T10:55:20;28.20;95.90
11965;DHT22;6042;41.326;19.826;2023-06-04T10:57:53;28.20;95.90
11965;DHT22;6042;41.326;19.826;2023-06-04T11:00:35;28.40;95.50
11965;DHT22;6042;41.326;19.826;2023-06-04T11:03:06;28.50;95.00
11965;DHT22;6042;41.326;19.826;2023-06-04T11:05:36;28.70;94.40
11965;DHT22;6042;41.326;19.826;2023-06-04T11:08:05;28.70;94.00
11965;DHT22;6042;41.326;19.826;2023-06-04T11:10:35;28.80;94.20
11965;DHT22;6042;41.326;19.826;2023-06-04T11:13:04;28.50;94.00
11965;DHT22;6042;41.326;19.826;2023-06-04T11:15:40;28.70;94.30
11965;DHT22;6042;41.326;19.826;2023-06-04T11:18:15;29.00;94.50
11965;DHT22;6042;41.326;19.826;2023-06-04T11:20:44;29.20;94.30
11965;DHT22;6042;41.326;19.826;2023-06-04T11:23:13;29.40;94.40
11965;DHT22;6042;41.326;19.826;2023-06-04T11:25:43;29.60;96.70
11965;DHT22;6042;41.326;19.826;2023-06-04T11:28:15;29.50;98.00
11965;DHT22;6042;41.326;19.826;2023-06-04T11:30:56;28.80;99.00
11965;DHT22;6042;41.326;19.826;2023-06-04T11:33:27;28.60;99.50
11965;DHT22;6042;41.326;19.826;2023-06-04T11:35:56;28.30;99.90
11965;DHT22;6042;41.326;19.826;2023-06-04T11:38:24;27.90;99.90
11965;DHT22;6042;41.326;19.826;2023-06-04T11:40:57;27.50;99.90
11965;DHT22;6042;41.326;19.826;2023-06-04T11:43:27;27.50;99.90
11965;DHT22;6042;41.326;19.826;2023-06-04T11:45:59;27.50;99.90
11965;DHT22;6042;41.326;19.826;2023-06-04T11:48:39;27.30;99.90
11965;DHT22;6042;41.326;19.826;2023-06-04T11:51:07;27.00;99.90
11965;DHT22;6042;41.326;19.826;2023-06-04T11:53:37;26.80;99.90
11965;DHT22;6042;41.326;19.826;2023-06-04T11:56:06;26.60;99.90
11965;DHT22;6042;41.326;19.826;2023-06-04T11:58:35;26.60;99.90
11965;DHT22;6042;41.326;19.826;2023-06-04T12:01:03;26.40;99.90
11965;DHT22;6042;41.326;19.826;2023-06-04T12:03:37;26.40;99.90
11965;DHT22;6042;41.326;19.826;2023-06-04T12:06:14;26.30;99.90
11965;DHT22;6042;41.326;19.826;2023-06-04T12:08:51;26.30;99.90
11965;DHT22;6042;41.326;19.826;2023-06-04T12:11:28;26.20;99.90
11965;DHT22;6042;41.326;19.826;2023-06-04T12:13:59;26.20;99.90
11965;DHT22;6042;41.326;19.826;2023-06-04T12:16:28;26.10;99.90
11965;DHT22;6042;41.326;19.826;2023-06-04T12:19:14;26.00;99.90
11965;DHT22;6042;41.326;19.826;2023-06-04T12:21:45;25.80;99.90
11965;DHT22;6042;41.326;19.826;2023-06-04T12:24:14;25.60;99.90
11965;DHT22;6042;41.326;19.826;2023-06-04T12:26:43;25.50;99.90
11965;DHT22;6042;41.326;19.826;2023-06-04T12:29:17;25.60;99.90
11965;DHT22;6042;41.326;19.826;2023-06-04T12:31:47;25.90;99.90
11965;DHT22;6042;41.326;19.826;2023-06-04T12:34:15;26.00;99.90
11965;DHT22;6042;41.326;19.826;2023-06-04T12:36:46;26.00;99.90
11965;DHT22;6042;41.326;19.826;2023-06-04T12:39:16;26.00;99.90
11965;DHT22;6042;41.326;19.826;2023-06-04T12:41:46;26.30;99.90
11965;DHT22;6042;41.326;19.826;2023-06-04T12:44:14;26.60;99.90
11965;DHT22;6042;41.326;19.826;2023-06-04T12:46:43;27.20;99.70
11965;DHT22;6042;41.326;19.826;2023-06-04T12:49:11;27.90;98.60
11965;DHT22;6042;41.326;19.826;2023-06-04T12:51:40;28.60;97.70
11965;DHT22;6042;41.326;19.826;2023-06-04T12:54:12;29.20;97.30
11965;DHT22;6042;41.326;19.826;2023-06-04T12:56:43;29.90;95.50
11965;DHT22;6042;41.326;19.826;2023-06-04T12:59:12;30.50;94.90
11965;DHT22;6042;41.326;19.826;2023-06-04T13:01:44;30.90;93.70
11965;DHT22;6042;41.326;19.826;2023-06-04T13:04:14;30.10;94.40
11965;DHT22;6042;41.326;19.826;2023-06-04T13:06:43;30.70;93.20
11965;DHT22;6042;41.326;19.826;2023-06-04T13:09:14;32.20;91.60
11965;DHT22;6042;41.326;19.826;2023-06-04T13:11:43;33.20;90.70
11965;DHT22;6042;41.326;19.826;2023-06-04T13:14:12;34.50;87.10
11965;DHT22;6042;41.326;19.826;2023-06-04T13:16:41;34.10;87.80
11965;DHT22;6042;41.326;19.826;2023-06-04T13:19:09;35.10;86.60
11965;DHT22;6042;41.326;19.826;2023-06-04T13:21:38;34.90;87.90
11965;DHT22;6042;41.326;19.826;2023-06-04T13:24:09;34.40;88.90
11965;DHT22;6042;41.326;19.826;2023-06-04T13:26:40;34.50;88.00
11965;DHT22;6042;41.326;19.826;2023-06-04T13:29:09;33.30;86.40
11965;DHT22;6042;41.326;19.826;2023-06-04T13:31:37;33.20;86.70
11965;DHT22;6042;41.326;19.826;2023-06-04T13:34:07;33.50;85.30
11965;DHT22;6042;41.326;19.826;2023-06-04T13:36:54;31.80;89.60
11965;DHT22;6042;41.326;19.826;2023-06-04T13:39:22;30.50;91.10
11965;DHT22;6042;41.326;19.826;2023-06-04T13:41:52;29.30;92.30
11965;DHT22;6042;41.326;19.826;2023-06-04T13:44:21;28.30;93.50
11965;DHT22;6042;41.326;19.826;2023-06-04T13:46:53;27.70;94.70
11965;DHT22;6042;41.326;19.826;2023-06-04T13:49:22;27.30;95.30
11965;DHT22;6042;41.326;19.826;2023-06-04T13:51:50;27.00;95.70
11965;DHT22;6042;41.326;19.826;2023-06-04T13:54:18;27.10;94.50
11965;DHT22;6042;41.326;19.826;2023-06-04T13:56:48;27.60;93.60
11965;DHT22;6042;41.326;19.826;2023-06-04T13:59:18;27.50;93.40
11965;DHT22;6042;41.326;19.826;2023-06-04T14:01:46;26.70;94.20
11965;DHT22;6042;41.326;19.826;2023-06-04T14:04:15;26.10;95.50
11965;DHT22;6042;41.326;19.826;2023-06-04T14:06:44;25.70;95.80
11965;DHT22;6042;41.326;19.826;2023-06-04T14:09:14;25.80;96.20
11965;DHT22;6042;41.326;19.826;2023-06-04T14:11:43;25.70;96.00
11965;DHT22;6042;41.326;19.826;2023-06-04T14:14:15;25.60;96.60
11965;DHT22;6042;41.326;19.826;2023-06-04T14:16:46;25.50;96.50
11965;DHT22;6042;41.326;19.826;2023-06-04T14:19:14;25.30;96.60
11965;DHT22;6042;41.326;19.826;2023-06-04T14:21:43;26.60;95.80
11965;DHT22;6042;41.326;19.826;2023-06-04T14:24:12;28.40;94.00
11965;DHT22;6042;41.326;19.826;2023-06-04T14:26:40;29.80;92.60
11965;DHT22;6042;41.326;19.826;2023-06-04T14:29:09;30.60;91.40
11965;DHT22;6042;41.326;19.826;2023-06-04T14:31:38;31.00;90.80
11965;DHT22;6042;41.326;19.826;2023-06-04T14:34:08;31.10;90.70
11965;DHT22;6042;41.326;19.826;2023-06-04T14:36:37;31.00;90.70
11965;DHT22;6042;41.326;19.826;2023-06-04T14:39:06;31.90;90.20
11965;DHT22;6042;41.326;19.826;2023-06-04T14:41:34;32.20;88.90
11965;DHT22;6042;41.326;19.826;2023-06-04T14:44:03;33.00;88.50
11965;DHT22;6042;41.326;19.826;2023-06-04T14:46:31;32.60;88.70
11965;DHT22;6042;41.326;19.826;2023-06-04T14:49:00;32.60;87.50
11965;DHT22;6042;41.326;19.826;2023-06-04T14:51:30;33.60;85.90
11965;DHT22;6042;41.326;19.826;2023-06-04T14:53:59;34.10;83.30
11965;DHT22;6042;41.326;19.826;2023-06-04T14:56:27;34.30;83.30
11965;DHT22;6042;41.326;19.826;2023-06-04T14:58:57;34.60;80.90
11965;DHT22;6042;41.326;19.826;2023-06-04T15:01:25;34.60;80.40
11965;DHT22;6042;41.326;19.826;2023-06-04T15:03:54;35.20;79.20
11965;DHT22;6042;41.326;19.826;2023-06-04T15:06:23;35.70;78.40
11965;DHT22;6042;41.326;19.826;2023-06-04T15:08:53;36.10;76.80
11965;DHT22;6042;41.326;19.826;2023-06-04T15:11:21;36.70;75.00
11965;DHT22;6042;41.326;19.826;2023-06-04T15:13:49;36.70;73.90
11965;DHT22;6042;41.326;19.826;2023-06-04T15:16:18;36.50;73.60
11965;DHT22;6042;41.326;19.826;2023-06-04T15:18:47;37.00;72.20
11965;DHT22;6042;41.326;19.826;2023-06-04T15:21:16;37.20;71.30
11965;DHT22;6042;41.326;19.826;2023-06-04T15:23:44;37.00;70.10
11965;DHT22;6042;41.326;19.826;2023-06-04T15:26:17;35.60;72.50
11965;DHT22;6042;41.326;19.826;2023-06-04T15:28:45;35.90;72.80
11965;DHT22;6042;41.326;19.826;2023-06-04T15:31:14;36.10;72.80
11965;DHT22;6042;41.326;19.826;2023-06-04T15:33:42;35.80;72.30
11965;DHT22;6042;41.326;19.826;2023-06-04T15:36:11;36.30;71.20
11965;DHT22;6042;41.326;19.826;2023-06-04T15:38:39;35.70;71.40
11965;DHT22;6042;41.326;19.826;2023-06-04T15:41:08;35.60;71.50
11965;DHT22;6042;41.326;19.826;2023-06-04T15:43:39;35.60;72.10
11965;DHT22;6042;41.326;19.826;2023-06-04T15:46:07;36.50;71.10
11965;DHT22;6042;41.326;19.826;2023-06-04T15:48:36;37.20;69.40
11965;DHT22;6042;41.326;19.826;2023-06-04T15:51:04;36.60;68.70
11965;DHT22;6042;41.326;19.826;2023-06-04T15:53:33;36.20;69.30
11965;DHT22;6042;41.326;19.826;2023-06-04T15:56:02;36.70;69.30
11965;DHT22;6042;41.326;19.826;2023-06-04T15:58:30;37.00;68.60
11965;DHT22;6042;41.326;19.826;2023-06-04T16:01:00;37.10;67.70
11965;DHT22;6042;41.326;19.826;2023-06-04T16:03:29;36.90;66.90